Terminal Aerodrome Forecast
Issued by NWS Bismarck, ND

Home | Current Version | Previous Version | Graphics & Text | Print | Product List | Glossary On
Versions: 1 2 3 4 5 6 7 8 9 10 11 12 13 14 15 16 17 18 19 20 21 22 23 24 25 26 27 28 29 30
000
FTUS43 KBIS 251911 AAB
TAFBIS
TAF AMD
KBIS 251911Z 2519/2618 31026G39KT P6SM SCT060
     FM252200 31023G32KT P6SM FEW070
     FM260100 31012G20KT P6SM SKC
     FM260300 30008KT P6SM SKC=

USA.gov is the U.S. government's official web portal to all federal, state and local government web resources and services.